Time;durP1;ratioP1;P1;durP2;ratioP2;P2;SDS_P1;SDS_P2;PMS_P1;PMS_P2;Temp;Humidity;BMP_temperature;BMP_pressure;BME280_temperature;BME280_humidity;BME280_pressure;Samples;Min_cycle;Max_cycle;Signal;HPM_P1;HPM_P2
2022/09/02 00:00:11;;;;;;;;;;;20.40;99.90;;;;;;5068136;28;19987;-78
2022/09/02 00:02:37;;;;;;;;;;;20.50;99.90;;;;;;5079436;28;19915;-77
2022/09/02 00:05:03;;;;;;;;;;;20.40;99.90;;;;;;5069292;28;19916;-77
2022/09/02 00:07:28;;;;;;;;;;;20.40;99.90;;;;;;5057387;28;19935;-78
2022/09/02 00:09:54;;;;;;;;;;;20.50;99.90;;;;;;5083559;28;19908;-78
2022/09/02 00:12:20;;;;;;;;;;;20.60;99.90;;;;;;5078828;28;19934;-78
2022/09/02 00:14:45;;;;;;;;;;;20.50;99.90;;;;;;5056691;28;19928;-77
2022/09/02 00:17:11;;;;;;;;;;;20.30;99.90;;;;;;5056185;28;19911;-78
2022/09/02 00:19:37;;;;;;;;;;;20.40;99.90;;;;;;5072367;28;19904;-78
2022/09/02 00:22:03;;;;;;;;;;;20.30;99.90;;;;;;5055046;28;19998;-78
2022/09/02 00:24:29;;;;;;;;;;;20.30;99.90;;;;;;5054022;28;20408;-78
2022/09/02 00:26:55;;;;;;;;;;;20.20;99.90;;;;;;5055005;28;19904;-79
2022/09/02 00:29:20;;;;;;;;;;;20.20;99.90;;;;;;5075568;28;20023;-78
2022/09/02 00:31:46;;;;;;;;;;;20.30;99.90;;;;;;5077875;28;19912;-78
2022/09/02 00:34:12;;;;;;;;;;;20.40;99.90;;;;;;5077164;28;19904;-78
2022/09/02 00:36:38;;;;;;;;;;;20.40;99.90;;;;;;5074890;28;19908;-78
2022/09/02 00:39:06;;;;;;;;;;;20.40;99.90;;;;;;5073817;28;19905;-78
2022/09/02 00:41:32;;;;;;;;;;;20.40;99.90;;;;;;5071047;28;20015;-79
2022/09/02 00:44:06;;;;;;;;;;;20.50;99.90;;;;;;5085853;28;20015;-79
2022/09/02 00:46:32;;;;;;;;;;;20.50;99.90;;;;;;5064657;28;19973;-78
2022/09/02 00:49:07;;;;;;;;;;;20.40;99.90;;;;;;5070588;28;20007;-78
2022/09/02 00:51:36;;;;;;;;;;;20.30;99.90;;;;;;5071292;28;20354;-78
2022/09/02 00:54:03;;;;;;;;;;;20.20;99.90;;;;;;5074957;28;20208;-78
2022/09/02 00:56:29;;;;;;;;;;;20.30;99.90;;;;;;5067661;28;19919;-78
2022/09/02 00:58:55;;;;;;;;;;;20.40;99.90;;;;;;5071942;28;19966;-78
2022/09/02 01:01:21;;;;;;;;;;;20.50;99.90;;;;;;5052926;28;19916;-77
2022/09/02 01:03:47;;;;;;;;;;;20.40;99.90;;;;;;5071052;28;19909;-77
2022/09/02 01:06:14;;;;;;;;;;;20.50;99.90;;;;;;5071464;28;19904;-78
2022/09/02 01:08:42;;;;;;;;;;;20.50;99.90;;;;;;5071359;28;20305;-77
2022/09/02 01:11:08;;;;;;;;;;;20.50;99.90;;;;;;5068793;28;20338;-77
2022/09/02 01:13:36;;;;;;;;;;;20.40;99.90;;;;;;5066444;28;19912;-77
2022/09/02 01:16:09;;;;;;;;;;;20.40;99.90;;;;;;5069061;28;19916;-77
2022/09/02 01:18:35;;;;;;;;;;;20.30;99.90;;;;;;5069588;28;20054;-78
2022/09/02 01:21:01;;;;;;;;;;;20.30;99.90;;;;;;5071990;28;19908;-79
2022/09/02 01:23:28;;;;;;;;;;;20.30;99.90;;;;;;5079594;28;19985;-77
2022/09/02 01:25:54;;;;;;;;;;;20.30;99.90;;;;;;5072483;28;20014;-78
2022/09/02 01:28:19;;;;;;;;;;;20.30;99.90;;;;;;5068527;28;20015;-77
2022/09/02 01:30:47;;;;;;;;;;;20.30;99.90;;;;;;5050132;28;19928;-78
2022/09/02 01:33:13;;;;;;;;;;;20.20;99.90;;;;;;5071453;28;19905;-77
2022/09/02 01:35:39;;;;;;;;;;;20.20;99.90;;;;;;5048258;28;19919;-78
2022/09/02 01:38:05;;;;;;;;;;;20.20;99.90;;;;;;5066623;28;20917;-77
2022/09/02 01:40:31;;;;;;;;;;;20.20;99.90;;;;;;5064935;28;19919;-79
2022/09/02 01:43:00;;;;;;;;;;;20.20;99.90;;;;;;5068168;28;19908;-78
2022/09/02 01:45:28;;;;;;;;;;;20.20;99.90;;;;;;5065110;28;19923;-78
2022/09/02 01:47:54;;;;;;;;;;;20.20;99.90;;;;;;5064898;28;19916;-78
2022/09/02 01:50:20;;;;;;;;;;;20.20;99.90;;;;;;5044792;28;20848;-77
2022/09/02 01:52:46;;;;;;;;;;;20.20;99.90;;;;;;5068281;28;19987;-78
2022/09/02 01:55:12;;;;;;;;;;;20.20;99.90;;;;;;5062591;28;19915;-78
2022/09/02 01:57:37;;;;;;;;;;;20.20;99.90;;;;;;5063819;28;19923;-77
2022/09/02 02:00:05;;;;;;;;;;;20.20;99.90;;;;;;5048832;28;19908;-77
2022/09/02 02:02:30;;;;;;;;;;;20.20;99.90;;;;;;5064802;28;19908;-77
2022/09/02 02:04:56;;;;;;;;;;;20.30;99.90;;;;;;5064843;28;19955;-76
2022/09/02 02:07:22;;;;;;;;;;;20.20;99.90;;;;;;5074122;28;19915;-76
2022/09/02 02:09:48;;;;;;;;;;;20.20;99.90;;;;;;5066596;28;19912;-77
2022/09/02 02:12:14;;;;;;;;;;;20.30;99.90;;;;;;5064394;28;19908;-76
2022/09/02 02:14:40;;;;;;;;;;;20.20;99.90;;;;;;5064596;28;19976;-77
2022/09/02 02:17:05;;;;;;;;;;;20.20;99.90;;;;;;5062815;28;20015;-77
2022/09/02 02:19:31;;;;;;;;;;;20.20;99.90;;;;;;5067368;28;19912;-76
2022/09/02 02:21:57;;;;;;;;;;;20.20;99.90;;;;;;5067728;28;19908;-77
2022/09/02 02:24:23;;;;;;;;;;;20.20;99.90;;;;;;5069429;28;19986;-77
2022/09/02 02:26:48;;;;;;;;;;;20.20;99.90;;;;;;5070446;28;19952;-77
2022/09/02 02:29:14;;;;;;;;;;;20.20;99.90;;;;;;5071424;28;19908;-78
2022/09/02 02:31:40;;;;;;;;;;;20.20;99.90;;;;;;5079416;28;19912;-77
2022/09/02 02:34:05;;;;;;;;;;;20.20;99.90;;;;;;5070866;28;20012;-76
2022/09/02 02:36:31;;;;;;;;;;;20.20;99.90;;;;;;5071062;28;19966;-74
2022/09/02 02:38:57;;;;;;;;;;;20.20;99.90;;;;;;5086159;28;20369;-75
2022/09/02 02:41:23;;;;;;;;;;;20.10;99.90;;;;;;5090108;28;19896;-76
2022/09/02 02:43:49;;;;;;;;;;;20.10;99.90;;;;;;5086572;28;19905;-77
2022/09/02 02:46:14;;;;;;;;;;;20.10;99.90;;;;;;5090029;28;19930;-76
2022/09/02 02:48:40;;;;;;;;;;;20.10;99.90;;;;;;5088592;28;19979;-76
2022/09/02 02:51:06;;;;;;;;;;;20.10;99.90;;;;;;5089551;28;19966;-77
2022/09/02 02:53:33;;;;;;;;;;;19.90;99.90;;;;;;5057619;28;20004;-77
2022/09/02 02:55:59;;;;;;;;;;;19.90;99.90;;;;;;5073210;28;19919;-76
2022/09/02 02:58:25;;;;;;;;;;;19.80;99.90;;;;;;5050197;28;19909;-78
2022/09/02 03:00:50;;;;;;;;;;;19.80;99.90;;;;;;5066474;28;19912;-77
2022/09/02 03:03:18;;;;;;;;;;;19.70;99.90;;;;;;5068694;28;19912;-76
2022/09/02 03:05:44;;;;;;;;;;;19.70;99.90;;;;;;5067474;28;19916;-77
2022/09/02 03:08:10;;;;;;;;;;;19.70;99.90;;;;;;5065847;28;19920;-76
2022/09/02 03:10:37;;;;;;;;;;;19.90;99.90;;;;;;5050599;28;19920;-77
2022/09/02 03:13:03;;;;;;;;;;;19.90;99.90;;;;;;5067759;28;19982;-76
2022/09/02 03:15:29;;;;;;;;;;;19.90;99.90;;;;;;5067510;28;19912;-75
2022/09/02 03:17:55;;;;;;;;;;;19.80;99.90;;;;;;5068047;28;19908;-78
2022/09/02 03:20:21;;;;;;;;;;;19.80;99.90;;;;;;5065755;28;19909;-75
2022/09/02 03:22:47;;;;;;;;;;;19.90;99.90;;;;;;5066343;28;19974;-76
2022/09/02 03:25:18;;;;;;;;;;;20.00;99.90;;;;;;5049907;28;19931;-76
2022/09/02 03:27:44;;;;;;;;;;;19.80;99.90;;;;;;5064695;28;19966;-76
2022/09/02 03:30:11;;;;;;;;;;;19.70;99.90;;;;;;5062828;28;19943;-75
2022/09/02 03:32:39;;;;;;;;;;;19.90;99.90;;;;;;5066204;28;19918;-75
2022/09/02 03:35:06;;;;;;;;;;;20.00;99.90;;;;;;5068757;28;19970;-76
2022/09/02 03:37:32;;;;;;;;;;;20.00;99.90;;;;;;5077828;28;19916;-77
2022/09/02 03:39:57;;;;;;;;;;;20.00;99.90;;;;;;5069595;28;19912;-75
2022/09/02 03:42:23;;;;;;;;;;;20.00;99.90;;;;;;5065088;28;20354;-76
2022/09/02 03:44:49;;;;;;;;;;;20.10;99.90;;;;;;5067042;28;19941;-75
2022/09/02 03:47:16;;;;;;;;;;;20.00;99.90;;;;;;5065426;28;19913;-75
2022/09/02 03:49:42;;;;;;;;;;;20.00;99.90;;;;;;5064380;28;19923;-79
2022/09/02 03:52:07;;;;;;;;;;;20.10;99.90;;;;;;5068454;28;19916;-76
2022/09/02 03:54:33;;;;;;;;;;;20.00;99.90;;;;;;5072452;28;19971;-77
2022/09/02 03:56:59;;;;;;;;;;;19.90;99.90;;;;;;5075095;28;19931;-76
2022/09/02 03:59:24;;;;;;;;;;;19.90;99.90;;;;;;5073461;28;19911;-77
2022/09/02 04:01:50;;;;;;;;;;;20.00;99.90;;;;;;5077037;28;19976;-77
2022/09/02 04:04:17;;;;;;;;;;;20.00;99.90;;;;;;5073915;28;19908;-78
2022/09/02 04:06:43;;;;;;;;;;;19.90;99.90;;;;;;5056892;28;20345;-78
2022/09/02 04:09:09;;;;;;;;;;;20.00;99.90;;;;;;5073730;28;19920;-79
2022/09/02 04:11:41;;;;;;;;;;;20.00;99.90;;;;;;5065841;28;20326;-77
2022/09/02 04:14:10;;;;;;;;;;;19.90;99.90;;;;;;5054134;28;19905;-77
2022/09/02 04:16:36;;;;;;;;;;;19.90;99.90;;;;;;5052438;28;19905;-77
2022/09/02 04:19:03;;;;;;;;;;;19.90;99.90;;;;;;5053383;28;19995;-77
2022/09/02 04:21:30;;;;;;;;;;;19.90;99.90;;;;;;5074559;28;20318;-76
2022/09/02 04:23:56;;;;;;;;;;;19.90;99.90;;;;;;5074458;28;20082;-77
2022/09/02 04:26:22;;;;;;;;;;;19.80;99.90;;;;;;5074741;28;20561;-78
2022/09/02 04:28:48;;;;;;;;;;;19.80;99.90;;;;;;5075972;28;19911;-77
2022/09/02 04:31:16;;;;;;;;;;;19.80;99.90;;;;;;5082043;28;19927;-77
2022/09/02 04:33:49;;;;;;;;;;;19.80;99.90;;;;;;5083471;28;19927;-77
2022/09/02 04:36:18;;;;;;;;;;;19.80;99.90;;;;;;5078584;28;19904;-78
2022/09/02 04:38:44;;;;;;;;;;;19.80;99.90;;;;;;5061476;28;20359;-77
2022/09/02 04:41:12;;;;;;;;;;;19.80;99.90;;;;;;5071703;28;20046;-77
2022/09/02 04:43:40;;;;;;;;;;;19.80;99.90;;;;;;5059352;28;20322;-77
2022/09/02 04:46:08;;;;;;;;;;;19.80;99.90;;;;;;5076599;28;20384;-78
2022/09/02 04:48:35;;;;;;;;;;;19.80;99.90;;;;;;5081662;28;19911;-77
2022/09/02 04:51:09;;;;;;;;;;;19.70;99.90;;;;;;5057752;28;20355;-77
2022/09/02 04:53:35;;;;;;;;;;;19.70;99.90;;;;;;5071765;28;20004;-77
2022/09/02 04:56:02;;;;;;;;;;;19.70;99.90;;;;;;5067067;28;19956;-77
2022/09/02 04:58:28;;;;;;;;;;;19.70;99.90;;;;;;5069555;28;19915;-77
2022/09/02 05:00:54;;;;;;;;;;;19.70;99.90;;;;;;5068228;28;19912;-75
2022/09/02 05:03:19;;;;;;;;;;;19.80;99.90;;;;;;5068788;28;19916;-76
2022/09/02 05:05:46;;;;;;;;;;;19.80;99.90;;;;;;5066678;28;20426;-78
2022/09/02 05:08:12;;;;;;;;;;;19.80;99.90;;;;;;5065066;28;20305;-75
2022/09/02 05:10:38;;;;;;;;;;;19.80;99.90;;;;;;5065019;28;19920;-77
2022/09/02 05:13:04;;;;;;;;;;;19.90;99.90;;;;;;5065675;28;20026;-77
2022/09/02 05:15:30;;;;;;;;;;;19.90;99.90;;;;;;5067763;28;19909;-77
2022/09/02 05:17:56;;;;;;;;;;;19.90;99.90;;;;;;5069489;28;19919;-76
2022/09/02 05:20:22;;;;;;;;;;;19.90;99.90;;;;;;5058499;28;19908;-77
2022/09/02 05:22:49;;;;;;;;;;;20.00;99.90;;;;;;5063509;28;20370;-76
2022/09/02 05:25:15;;;;;;;;;;;19.90;99.90;;;;;;5067870;28;19912;-77
2022/09/02 05:27:40;;;;;;;;;;;20.00;99.90;;;;;;5060927;28;19918;-76
2022/09/02 05:30:06;;;;;;;;;;;20.10;99.90;;;;;;5069992;28;19916;-77
2022/09/02 05:32:32;;;;;;;;;;;20.10;99.90;;;;;;5056854;28;19931;-76
2022/09/02 05:34:58;;;;;;;;;;;20.10;99.90;;;;;;5064309;28;19974;-76
2022/09/02 05:37:23;;;;;;;;;;;20.10;99.90;;;;;;5064884;28;19915;-76
2022/09/02 05:39:49;;;;;;;;;;;20.20;99.90;;;;;;5064779;28;20003;-77
2022/09/02 05:42:15;;;;;;;;;;;20.20;99.90;;;;;;5062602;28;19964;-76
2022/09/02 05:44:43;;;;;;;;;;;20.20;99.90;;;;;;5045622;28;19938;-77
2022/09/02 05:47:09;;;;;;;;;;;20.30;99.90;;;;;;5065778;28;19924;-77
2022/09/02 05:49:35;;;;;;;;;;;20.20;99.90;;;;;;5063452;28;19917;-76
2022/09/02 05:52:01;;;;;;;;;;;20.20;99.90;;;;;;5076479;28;19913;-77
2022/09/02 05:54:28;;;;;;;;;;;20.30;99.90;;;;;;5069122;28;20046;-76
2022/09/02 05:56:56;;;;;;;;;;;20.30;99.90;;;;;;5073229;28;19915;-77
2022/09/02 05:59:22;;;;;;;;;;;20.30;99.90;;;;;;5079675;28;19931;-76
2022/09/02 06:01:48;;;;;;;;;;;20.30;99.90;;;;;;5077032;28;19962;-77
2022/09/02 06:04:14;;;;;;;;;;;20.40;99.90;;;;;;5068048;28;20305;-77
2022/09/02 06:06:40;;;;;;;;;;;20.40;99.90;;;;;;5074144;28;19909;-77
2022/09/02 06:09:07;;;;;;;;;;;20.40;99.90;;;;;;5075812;28;19927;-78
2022/09/02 06:11:33;;;;;;;;;;;20.40;99.90;;;;;;5069900;28;19916;-78
2022/09/02 06:13:59;;;;;;;;;;;20.50;99.90;;;;;;5069940;28;19916;-78
2022/09/02 06:16:25;;;;;;;;;;;20.50;99.90;;;;;;5056411;28;19908;-76
2022/09/02 06:18:51;;;;;;;;;;;20.50;99.90;;;;;;5071803;28;19917;-77
2022/09/02 06:21:17;;;;;;;;;;;20.60;99.90;;;;;;5077004;28;19923;-77
2022/09/02 06:23:43;;;;;;;;;;;20.60;99.90;;;;;;5080876;28;19993;-78
2022/09/02 06:26:11;;;;;;;;;;;20.60;99.90;;;;;;5066132;28;19912;-77
2022/09/02 06:28:37;;;;;;;;;;;20.60;99.90;;;;;;5048560;28;19908;-77
2022/09/02 06:31:11;;;;;;;;;;;20.60;99.90;;;;;;5077986;28;19916;-76
2022/09/02 06:33:38;;;;;;;;;;;20.80;99.90;;;;;;5076554;28;19951;-78
2022/09/02 06:36:07;;;;;;;;;;;20.90;99.90;;;;;;5058438;28;19990;-77
2022/09/02 06:38:35;;;;;;;;;;;20.90;99.90;;;;;;5071713;28;20358;-77
2022/09/02 06:41:01;;;;;;;;;;;20.90;99.90;;;;;;5071035;28;19916;-79
2022/09/02 06:43:27;;;;;;;;;;;21.00;99.90;;;;;;5071442;28;19914;-76
2022/09/02 06:45:52;;;;;;;;;;;21.00;99.90;;;;;;5072116;28;19912;-76
2022/09/02 06:48:18;;;;;;;;;;;21.00;99.90;;;;;;5070934;28;19983;-78
2022/09/02 06:50:44;;;;;;;;;;;21.10;99.90;;;;;;5064690;28;19912;-78
2022/09/02 06:53:11;;;;;;;;;;;21.00;99.90;;;;;;5071448;28;19928;-78
2022/09/02 06:55:37;;;;;;;;;;;21.10;99.90;;;;;;5069956;28;19947;-77
2022/09/02 06:58:03;;;;;;;;;;;21.20;99.90;;;;;;5069769;28;19908;-78
2022/09/02 07:00:30;;;;;;;;;;;21.20;99.90;;;;;;5074570;28;19939;-78
2022/09/02 07:05:41;;;;;;;;;;;21.30;99.90;;;;;;5070914;28;19936;-77
2022/09/02 07:08:06;;;;;;;;;;;21.40;99.90;;;;;;5071719;28;20359;-78
2022/09/02 07:10:32;;;;;;;;;;;21.30;99.90;;;;;;5072437;28;19927;-80
2022/09/02 07:12:58;;;;;;;;;;;21.30;99.90;;;;;;5066568;28;20350;-78
2022/09/02 07:15:24;;;;;;;;;;;21.30;99.90;;;;;;5069784;28;19927;-79
2022/09/02 07:17:50;;;;;;;;;;;21.50;99.90;;;;;;5065257;28;20336;-68
2022/09/02 07:20:16;;;;;;;;;;;21.50;99.90;;;;;;5064562;28;20193;-68
2022/09/02 07:22:42;;;;;;;;;;;21.50;99.90;;;;;;5064809;28;19915;-67
2022/09/02 07:25:08;;;;;;;;;;;21.50;99.90;;;;;;5068670;28;20317;-68
2022/09/02 07:27:34;;;;;;;;;;;21.50;99.90;;;;;;5070006;28;19908;-69
2022/09/02 07:30:03;;;;;;;;;;;21.60;99.90;;;;;;5069188;28;20350;-69
2022/09/02 07:32:30;;;;;;;;;;;21.70;99.90;;;;;;5075822;28;19939;-69
2022/09/02 07:34:55;;;;;;;;;;;21.80;99.90;;;;;;5063110;28;19924;-67
2022/09/02 07:37:21;;;;;;;;;;;21.70;99.90;;;;;;5063476;28;19908;-69
2022/09/02 07:39:47;;;;;;;;;;;21.70;99.90;;;;;;5065509;28;19917;-69
2022/09/02 07:42:12;;;;;;;;;;;21.70;99.90;;;;;;5066336;28;19985;-69
2022/09/02 07:44:38;;;;;;;;;;;21.80;99.90;;;;;;5068987;28;19908;-68
2022/09/02 07:47:05;;;;;;;;;;;21.90;99.90;;;;;;5066606;28;20059;-71
2022/09/02 07:49:31;;;;;;;;;;;22.00;99.90;;;;;;5069934;28;19935;-67
2022/09/02 07:51:56;;;;;;;;;;;22.10;99.90;;;;;;5066091;28;20358;-67
2022/09/02 07:54:23;;;;;;;;;;;22.20;99.90;;;;;;5065881;28;20366;-69
2022/09/02 07:56:50;;;;;;;;;;;22.40;99.90;;;;;;5065921;28;20274;-67
2022/09/02 07:59:16;;;;;;;;;;;22.60;99.90;;;;;;5083194;28;20294;-69
2022/09/02 08:01:42;;;;;;;;;;;22.70;99.90;;;;;;5085437;28;19915;-70
2022/09/02 08:04:08;;;;;;;;;;;22.90;99.90;;;;;;5069133;28;19908;-69
2022/09/02 08:06:34;;;;;;;;;;;22.90;99.90;;;;;;5072477;28;19908;-68
2022/09/02 08:09:01;;;;;;;;;;;22.80;99.90;;;;;;5072207;28;19967;-68
2022/09/02 08:11:27;;;;;;;;;;;22.70;99.90;;;;;;5070962;28;19990;-70
2022/09/02 08:13:53;;;;;;;;;;;22.70;99.90;;;;;;5075590;28;20367;-67
2022/09/02 08:16:19;;;;;;;;;;;22.80;99.90;;;;;;5085468;28;19957;-71
2022/09/02 08:18:45;;;;;;;;;;;22.80;99.90;;;;;;5077008;28;19920;-69
2022/09/02 08:21:12;;;;;;;;;;;22.90;99.90;;;;;;5076413;28;19995;-68
2022/09/02 08:23:37;;;;;;;;;;;23.00;99.90;;;;;;5071978;28;20016;-72
2022/09/02 08:26:04;;;;;;;;;;;23.10;99.90;;;;;;5065062;28;19955;-68
2022/09/02 08:28:34;;;;;;;;;;;23.20;99.90;;;;;;5070929;28;19911;-71
2022/09/02 08:31:03;;;;;;;;;;;23.20;99.90;;;;;;5069469;28;19919;-68
2022/09/02 08:33:28;;;;;;;;;;;23.40;99.90;;;;;;5077845;28;19951;-69
2022/09/02 08:35:54;;;;;;;;;;;23.50;99.90;;;;;;5082378;28;19955;-69
2022/09/02 08:38:21;;;;;;;;;;;23.60;99.90;;;;;;5073189;28;19908;-69
2022/09/02 08:40:46;;;;;;;;;;;23.50;99.90;;;;;;5077694;28;19916;-68
2022/09/02 08:43:24;;;;;;;;;;;23.60;99.90;;;;;;5055072;28;20334;-71
2022/09/02 08:45:52;;;;;;;;;;;23.70;99.90;;;;;;5054715;28;19912;-71
2022/09/02 08:48:20;;;;;;;;;;;23.70;99.90;;;;;;5071634;28;19908;-72
2022/09/02 08:50:48;;;;;;;;;;;23.50;99.90;;;;;;5062138;28;19920;-68
2022/09/02 08:53:31;;;;;;;;;;;23.50;99.90;;;;;;5073575;28;20278;-69
2022/09/02 08:55:57;;;;;;;;;;;23.50;99.90;;;;;;5073048;28;20291;-69
2022/09/02 08:58:24;;;;;;;;;;;23.70;99.90;;;;;;5070707;28;20365;-69
2022/09/02 09:00:54;;;;;;;;;;;23.70;99.90;;;;;;5071311;28;19912;-69
2022/09/02 09:03:22;;;;;;;;;;;23.70;99.90;;;;;;5071400;28;20014;-68
2022/09/02 09:05:48;;;;;;;;;;;23.80;99.90;;;;;;5070198;28;19908;-68
2022/09/02 09:08:37;;;;;;;;;;;23.80;99.90;;;;;;5078804;28;19908;-69
2022/09/02 09:11:09;;;;;;;;;;;23.80;99.90;;;;;;5069266;28;20250;-69
2022/09/02 09:13:53;;;;;;;;;;;23.70;99.90;;;;;;5077441;28;20356;-70
2022/09/02 09:16:19;;;;;;;;;;;23.80;99.90;;;;;;5071351;28;20389;-70
2022/09/02 09:18:53;;;;;;;;;;;23.90;99.90;;;;;;5070137;28;19956;-68
2022/09/02 09:21:19;;;;;;;;;;;23.90;99.90;;;;;;5061711;28;19912;-70
2022/09/02 09:23:45;;;;;;;;;;;23.90;99.90;;;;;;5069202;28;19916;-67
2022/09/02 09:26:12;;;;;;;;;;;24.00;99.90;;;;;;5066022;28;19915;-69
2022/09/02 09:28:46;;;;;;;;;;;24.10;99.90;;;;;;5069006;28;19908;-69
2022/09/02 09:31:14;;;;;;;;;;;24.10;99.90;;;;;;5066752;28;19916;-68
2022/09/02 09:33:53;;;;;;;;;;;24.00;99.90;;;;;;5051893;28;20010;-67
2022/09/02 09:36:19;;;;;;;;;;;24.10;99.90;;;;;;5063123;28;20062;-70
2022/09/02 09:38:45;;;;;;;;;;;24.20;99.90;;;;;;5065572;28;20390;-69
2022/09/02 09:41:13;;;;;;;;;;;24.20;99.90;;;;;;5070594;28;20383;-70
2022/09/02 09:43:38;;;;;;;;;;;24.20;99.90;;;;;;5050995;28;19986;-69
2022/09/02 09:46:19;;;;;;;;;;;24.30;99.90;;;;;;5068101;28;20657;-67
2022/09/02 09:48:48;;;;;;;;;;;24.30;99.90;;;;;;5065153;28;20386;-68
2022/09/02 09:51:14;;;;;;;;;;;24.40;99.90;;;;;;5065064;28;19912;-69
2022/09/02 09:53:40;;;;;;;;;;;24.40;99.90;;;;;;5078977;28;19908;-70
2022/09/02 09:56:14;;;;;;;;;;;24.50;99.90;;;;;;5066105;28;19922;-71
2022/09/02 09:58:40;;;;;;;;;;;24.50;99.90;;;;;;5073489;28;20058;-71
2022/09/02 10:01:13;;;;;;;;;;;24.50;99.90;;;;;;5077723;28;20019;-68
2022/09/02 10:03:47;;;;;;;;;;;24.40;99.90;;;;;;5074945;28;19974;-70
2022/09/02 10:06:17;;;;;;;;;;;24.40;99.90;;;;;;5075592;28;20393;-68
2022/09/02 10:08:51;;;;;;;;;;;24.60;99.90;;;;;;5071525;28;19908;-70
2022/09/02 10:11:36;;;;;;;;;;;24.60;99.90;;;;;;5080278;28;19916;-71
2022/09/02 10:14:03;;;;;;;;;;;24.70;99.90;;;;;;5078837;28;19911;-70
2022/09/02 10:16:48;;;;;;;;;;;24.70;99.90;;;;;;5070748;28;19916;-72
2022/09/02 10:19:14;;;;;;;;;;;24.60;99.90;;;;;;5070990;28;19970;-68
2022/09/02 10:21:48;;;;;;;;;;;24.70;99.90;;;;;;5071457;28;19908;-74
2022/09/02 10:24:26;;;;;;;;;;;24.80;99.90;;;;;;5042808;28;20418;-68
2022/09/02 10:26:54;;;;;;;;;;;24.90;99.90;;;;;;5071769;28;19904;-71
2022/09/02 10:29:26;;;;;;;;;;;25.00;99.90;;;;;;5070573;28;20042;-69
2022/09/02 10:32:07;;;;;;;;;;;25.00;99.90;;;;;;5070686;28;20440;-70
2022/09/02 10:34:40;;;;;;;;;;;25.00;99.90;;;;;;5069218;28;19923;-72
2022/09/02 10:37:19;;;;;;;;;;;25.00;99.90;;;;;;5070144;28;19908;-71
2022/09/02 10:39:45;;;;;;;;;;;25.20;99.90;;;;;;5071117;28;20004;-69
2022/09/02 10:42:21;;;;;;;;;;;25.30;99.90;;;;;;5080665;28;19908;-69
2022/09/02 10:44:59;;;;;;;;;;;25.30;99.90;;;;;;5077819;28;19911;-68
2022/09/02 10:47:24;;;;;;;;;;;25.40;99.90;;;;;;5072805;28;19908;-70
2022/09/02 10:50:10;;;;;;;;;;;25.60;99.90;;;;;;5062499;28;19915;-68
2022/09/02 10:52:49;;;;;;;;;;;25.80;99.90;;;;;;5071686;28;19909;-71
2022/09/02 10:55:34;;;;;;;;;;;25.80;99.90;;;;;;5066782;28;19908;-70
2022/09/02 10:58:03;;;;;;;;;;;25.90;99.90;;;;;;5066304;28;19909;-71
2022/09/02 11:00:30;;;;;;;;;;;26.00;99.90;;;;;;5071410;28;19912;-69
2022/09/02 11:02:58;;;;;;;;;;;26.00;99.90;;;;;;5077287;28;19912;-69
2022/09/02 11:05:28;;;;;;;;;;;26.00;99.90;;;;;;5079853;28;19950;-70
2022/09/02 11:07:57;;;;;;;;;;;26.00;99.90;;;;;;5075035;28;19912;-68
2022/09/02 11:10:52;;;;;;;;;;;26.20;99.90;;;;;;5071193;28;19912;-71
2022/09/02 11:13:36;;;;;;;;;;;26.20;99.90;;;;;;5052319;28;19912;-69
2022/09/02 11:16:02;;;;;;;;;;;26.10;99.90;;;;;;5055391;28;20452;-70
2022/09/02 11:18:34;;;;;;;;;;;25.90;99.90;;;;;;5083252;28;19915;-69
2022/09/02 11:21:00;;;;;;;;;;;25.90;99.90;;;;;;5071152;28;20364;-70
2022/09/02 11:23:25;;;;;;;;;;;26.10;99.90;;;;;;5071114;28;19908;-72
2022/09/02 11:25:59;;;;;;;;;;;26.30;99.90;;;;;;5074861;28;20378;-72
2022/09/02 11:28:40;;;;;;;;;;;26.60;99.90;;;;;;5077819;28;20348;-70
2022/09/02 11:31:20;;;;;;;;;;;26.80;99.90;;;;;;5072532;28;19914;-70
2022/09/02 11:33:56;;;;;;;;;;;26.70;99.90;;;;;;5072261;28;19919;-73
2022/09/02 11:36:25;;;;;;;;;;;26.60;99.90;;;;;;5067727;28;19953;-71
2022/09/02 11:39:00;;;;;;;;;;;26.50;99.90;;;;;;5078878;28;20052;-71
2022/09/02 11:41:44;;;;;;;;;;;26.40;99.90;;;;;;5073338;28;19991;-71
2022/09/02 11:44:35;;;;;;;;;;;26.60;99.90;;;;;;5071979;28;19962;-73
2022/09/02 11:47:18;;;;;;;;;;;26.80;99.90;;;;;;5059751;28;19923;-71
2022/09/02 11:49:50;;;;;;;;;;;27.00;99.90;;;;;;5078032;28;19912;-71
2022/09/02 11:52:33;;;;;;;;;;;27.00;99.90;;;;;;5069747;28;20137;-70
2022/09/02 11:55:15;;;;;;;;;;;27.10;99.90;;;;;;5062815;28;19912;-72
2022/09/02 11:57:41;;;;;;;;;;;26.80;99.90;;;;;;5072290;28;19977;-70
2022/09/02 12:00:12;;;;;;;;;;;26.70;99.90;;;;;;5081364;28;19912;-71
2022/09/02 12:02:37;;;;;;;;;;;26.50;99.90;;;;;;5071752;28;19996;-70
2022/09/02 12:05:21;;;;;;;;;;;26.40;99.90;;;;;;5071589;28;20023;-72
2022/09/02 12:07:48;;;;;;;;;;;26.40;99.90;;;;;;5051225;28;19908;-71
2022/09/02 12:10:33;;;;;;;;;;;26.40;99.90;;;;;;5078791;28;19920;-70
2022/09/02 12:12:59;;;;;;;;;;;26.20;99.90;;;;;;5066605;28;19916;-70
2022/09/02 12:15:25;;;;;;;;;;;26.20;99.90;;;;;;5084685;28;19916;-70
2022/09/02 12:17:50;;;;;;;;;;;26.10;99.90;;;;;;5063062;28;20326;-70
2022/09/02 12:20:51;;;;;;;;;;;25.90;99.90;;;;;;5072581;28;19912;-70
2022/09/02 12:23:35;;;;;;;;;;;26.20;99.90;;;;;;5039154;28;19912;-70
2022/09/02 12:26:05;;;;;;;;;;;26.20;99.90;;;;;;5069882;28;19919;-68
2022/09/02 12:28:31;;;;;;;;;;;26.10;99.90;;;;;;5066323;28;19908;-71
2022/09/02 12:31:09;;;;;;;;;;;26.30;99.90;;;;;;5080573;28;19916;-71
2022/09/02 12:33:36;;;;;;;;;;;26.60;99.90;;;;;;5057016;28;20200;-71
2022/09/02 12:36:03;;;;;;;;;;;26.70;99.90;;;;;;5072666;28;19908;-70
2022/09/02 12:38:29;;;;;;;;;;;26.90;99.90;;;;;;5071492;28;19908;-71
2022/09/02 12:40:54;;;;;;;;;;;27.10;99.90;;;;;;5067643;28;20064;-71
2022/09/02 12:43:26;;;;;;;;;;;27.00;99.90;;;;;;5072972;28;20342;-70
2022/09/02 12:45:53;;;;;;;;;;;26.90;99.90;;;;;;5066790;28;19915;-70
2022/09/02 12:48:23;;;;;;;;;;;26.80;99.90;;;;;;5081162;28;19978;-70
2022/09/02 12:50:52;;;;;;;;;;;27.00;99.90;;;;;;5072548;28;20464;-70
2022/09/02 12:53:23;;;;;;;;;;;26.70;99.90;;;;;;5072532;28;19951;-70
2022/09/02 12:55:58;;;;;;;;;;;26.50;99.90;;;;;;5067468;28;19938;-72
2022/09/02 12:58:24;;;;;;;;;;;26.40;99.90;;;;;;5067555;28;19922;-71
2022/09/02 13:01:19;;;;;;;;;;;26.30;99.90;;;;;;5065008;28;19908;-72
2022/09/02 13:03:48;;;;;;;;;;;26.30;99.90;;;;;;5021434;28;20004;-71
2022/09/02 13:06:24;;;;;;;;;;;26.30;99.90;;;;;;5077985;28;19915;-72
2022/09/02 13:08:55;;;;;;;;;;;26.50;99.90;;;;;;5069256;28;19938;-71
2022/09/02 13:11:36;;;;;;;;;;;26.80;99.90;;;;;;5070741;28;20097;-69
2022/09/02 13:14:20;;;;;;;;;;;26.80;99.90;;;;;;5069842;28;20074;-70
2022/09/02 13:17:04;;;;;;;;;;;26.80;99.90;;;;;;5068610;28;20122;-70
2022/09/02 13:19:42;;;;;;;;;;;27.00;99.90;;;;;;5064888;28;20279;-71
2022/09/02 13:22:28;;;;;;;;;;;27.30;99.90;;;;;;5077095;28;19913;-71
2022/09/02 13:24:53;;;;;;;;;;;27.60;99.90;;;;;;5054136;28;19912;-70
2022/09/02 13:27:28;;;;;;;;;;;27.40;99.90;;;;;;5079279;28;19955;-70
2022/09/02 13:29:53;;;;;;;;;;;27.30;99.90;;;;;;5069714;28;19912;-69
2022/09/02 13:32:19;;;;;;;;;;;27.30;99.90;;;;;;5055284;28;19912;-70
2022/09/02 13:34:46;;;;;;;;;;;27.40;99.90;;;;;;5073264;28;20480;-71
2022/09/02 13:37:28;;;;;;;;;;;27.60;99.90;;;;;;5078379;28;19908;-69
2022/09/02 13:39:54;;;;;;;;;;;27.50;99.90;;;;;;5070278;28;19915;-71
2022/09/02 13:42:24;;;;;;;;;;;27.40;99.90;;;;;;5079927;28;19991;-72
2022/09/02 13:44:50;;;;;;;;;;;27.60;99.90;;;;;;5052734;28;19949;-71
2022/09/02 13:47:18;;;;;;;;;;;27.80;99.90;;;;;;5060628;28;19915;-71
2022/09/02 13:49:49;;;;;;;;;;;27.70;99.90;;;;;;5083075;28;19915;-71
2022/09/02 13:52:20;;;;;;;;;;;27.40;99.90;;;;;;5064362;28;19904;-70
2022/09/02 13:54:48;;;;;;;;;;;27.20;99.90;;;;;;5070173;28;19915;-75
2022/09/02 13:57:17;;;;;;;;;;;27.00;99.90;;;;;;5073702;28;19931;-71
2022/09/02 13:59:48;;;;;;;;;;;26.80;99.90;;;;;;5073821;28;19976;-71
2022/09/02 14:02:25;;;;;;;;;;;27.00;99.90;;;;;;5070004;28;19962;-70
2022/09/02 14:04:57;;;;;;;;;;;27.10;99.90;;;;;;5071957;28;19976;-72
2022/09/02 14:07:31;;;;;;;;;;;26.80;99.90;;;;;;5075693;28;19943;-70
2022/09/02 14:09:59;;;;;;;;;;;27.00;99.90;;;;;;5069258;28;19918;-69
2022/09/02 14:12:26;;;;;;;;;;;27.00;99.90;;;;;;5069448;28;19915;-71
2022/09/02 14:14:52;;;;;;;;;;;27.00;99.90;;;;;;5069701;28;20296;-70
2022/09/02 14:17:24;;;;;;;;;;;26.90;99.90;;;;;;5076170;28;19908;-70
2022/09/02 14:19:50;;;;;;;;;;;26.70;99.90;;;;;;5088357;28;19908;-71
2022/09/02 14:22:24;;;;;;;;;;;26.70;99.90;;;;;;5080088;28;19916;-70
2022/09/02 14:24:50;;;;;;;;;;;26.90;99.90;;;;;;5070940;28;19916;-71
2022/09/02 14:27:17;;;;;;;;;;;26.80;99.90;;;;;;5071330;28;20267;-70